Main page
METAR-TAF:

METAR-TAF

Airports :

Balikesir, Turkey

Balıkesir Airport

latitude: 39-37N, longitude: 027-55E, elevation: 101 m

Current weather observation

The report was made 26 minutes ago, at 22:50 UTC
Calm wind
Temperature -2°C
Humidity 93%
Pressure 1018 hPa
Visibility 10 km or more
no clouds below 1500 m and no cumulonimbus

METAR: LTBF 192250Z 00000KT CAVOK M02/M03 Q1018 NOSIG

Time: 02:16 (23:16 UTC)

Forecast

The report was made 3 hours and 36 minutes ago, at 19:40 UTC
Forecast valid from 19 at 21 UTC to 20 at 06 UTC
Wind 2 kt from variable directions
Visibility 10 km or more
no clouds below 1500 m and no cumulonimbus
Probability 40%
from 20 at 03 UTC to 20 at 06 UTC
Visibility: 2000 m
mist

TAF: LTBF 191940Z 1921/2006 VRB02KT CAVOK PROB40 2003/2006 2000 BR

Weather observations and forecasts of more than 4000 airports (METAR and TAF reports).

The available stations are represented by yellow and red dots on the map.

Hover mouse over dot to see the name of the station.

Then click to see weather observations and forecasts.

To change the map : click on the green buttons with a black cross to zoom in, on the green button with a dash to zoom out, or on the green arrows for adjacent maps.


METAR-TAF: